Time;durP1;ratioP1;P1;durP2;ratioP2;P2;SDS_P1;SDS_P2;PMS_P1;PMS_P2;Temp;Humidity;BMP_temperature;BMP_pressure;BME280_temperature;BME280_humidity;BME280_pressure;Samples;Min_cycle;Max_cycle;Signal;HPM_P1;HPM_P2
2022/12/23 00:00:42;;;;;;;53.58;32.63;;;6.90;99.90;;;;;;5042524;28;20075;-81
2022/12/23 00:03:08;;;;;;;60.92;33.50;;;6.90;99.90;;;;;;5081241;28;20037;-80
2022/12/23 00:05:36;;;;;;;60.42;33.22;;;6.90;99.90;;;;;;5048903;28;20392;-80
2022/12/23 00:08:02;;;;;;;56.80;33.80;;;8.20;99.90;;;;;;5049596;28;20044;-80
2022/12/23 00:10:28;;;;;;;56.55;32.83;;;6.90;99.90;;;;;;5045542;28;20596;-80
2022/12/23 00:15:37;;;;;;;48.95;30.40;;;6.90;99.90;;;;;;5047963;28;20049;-80
2022/12/23 00:18:03;;;;;;;51.53;30.38;;;6.90;99.90;;;;;;5048999;28;20056;-80
2022/12/23 00:20:29;;;;;;;50.90;30.05;;;6.90;99.90;;;;;;5048369;28;20053;-80
2022/12/23 00:23:03;;;;;;;54.97;31.17;;;6.90;99.90;;;;;;5081336;28;20512;-80
2022/12/23 00:25:43;;;;;;;;;;;7.00;99.90;;;;;;5048500;28;20043;-80
2022/12/23 00:28:13;;;;;;;55.28;31.02;;;6.90;99.90;;;;;;5047462;28;19927;-80
2022/12/23 00:30:48;;;;;;;53.72;32.50;;;6.90;99.90;;;;;;5048344;28;20063;-80
2022/12/23 00:33:15;;;;;;;56.42;33.45;;;6.90;99.90;;;;;;5047854;28;20397;-81
2022/12/23 00:35:42;;;;;;;54.75;32.58;;;7.90;99.90;;;;;;5047688;28;20111;-81
2022/12/23 00:38:08;;;;;;;57.75;33.00;;;6.90;99.90;;;;;;5030811;28;20089;-81
2022/12/23 00:43:17;;;;;;;56.65;32.67;;;6.90;99.90;;;;;;5048704;28;20129;-80
2022/12/23 00:45:43;;;;;;;54.40;31.80;;;8.50;99.90;;;;;;5049590;28;20116;-80
2022/12/23 00:50:53;;;;;;;51.08;30.42;;;6.90;99.90;;;;;;5048277;28;20144;-81
2022/12/23 00:53:19;;;;;;;54.15;30.98;;;7.00;99.90;;;;;;5049743;28;20454;-81
2022/12/23 00:55:46;;;;;;;50.63;29.27;;;6.90;99.90;;;;;;5049797;28;20060;-82
2022/12/23 00:58:13;;;;;;;49.33;30.02;;;7.50;99.90;;;;;;5049125;28;20052;-80
2022/12/23 01:06:08;;;;;;;49.50;28.88;;;7.40;99.90;;;;;;5047097;28;20060;-81
2022/12/23 01:08:34;;;;;;;51.97;30.52;;;7.00;99.90;;;;;;5048737;28;20041;-81
2022/12/23 01:11:09;;;;;;;51.45;29.95;;;6.90;99.90;;;;;;5030655;28;20477;-81
2022/12/23 01:13:34;;;;;;;53.22;30.73;;;8.40;99.90;;;;;;5047156;28;20029;-81
2022/12/23 01:16:02;;;;;;;53.05;29.33;;;6.90;99.90;;;;;;5031750;28;20125;-81
2022/12/23 01:18:28;;;;;;;54.90;30.08;;;6.90;99.90;;;;;;5047519;28;20571;-80
2022/12/23 01:20:54;;;;;;;50.72;29.73;;;6.90;99.90;;;;;;5048835;28;20045;-81
2022/12/23 01:23:19;;;;;;;53.30;30.52;;;6.90;99.90;;;;;;5051400;28;20029;-81
2022/12/23 01:25:46;;;;;;;50.45;30.42;;;8.00;99.90;;;;;;5047915;28;20041;-81
2022/12/23 01:28:12;;;;;;;50.40;28.70;;;6.90;99.90;;;;;;5047590;28;20087;-81
2022/12/23 01:30:38;;;;;;;51.85;29.48;;;6.90;99.90;;;;;;5053737;28;20036;-81
2022/12/23 01:33:04;;;;;;;51.88;30.60;;;6.90;99.90;;;;;;5054387;28;20524;-81
2022/12/23 01:35:30;;;;;;;48.05;29.05;;;6.90;99.90;;;;;;5049653;28;20041;-81
2022/12/23 01:37:55;;;;;;;46.50;28.80;;;6.90;99.90;;;;;;5049920;28;20048;-80
2022/12/23 01:40:21;;;;;;;46.50;28.30;;;8.00;99.90;;;;;;5048976;28;20112;-80
2022/12/23 01:42:46;;;;;;;46.33;27.45;;;6.90;99.90;;;;;;5052522;28;20117;-81
2022/12/23 01:45:24;;;;;;;55.25;30.95;;;6.90;99.90;;;;;;5047191;28;20127;-80
2022/12/23 01:48:02;;;;;;;52.67;31.30;;;6.90;99.90;;;;;;5033798;28;20053;-82
2022/12/23 01:50:39;;;;;;;56.70;32.38;;;6.90;99.90;;;;;;5049525;28;20041;-80
2022/12/23 01:53:19;;;;;;;56.53;33.55;;;6.90;99.90;;;;;;5047730;28;20481;-81
2022/12/23 01:55:53;;;;;;;61.60;32.80;;;6.90;99.90;;;;;;5045162;28;20386;-80
2022/12/23 01:58:24;;;;;;;;;;;6.90;99.90;;;;;;5044700;28;20048;-81
2022/12/23 02:03:42;;;;;;;80.00;37.10;;;6.80;99.90;;;;;;5046176;28;20517;-80
2022/12/23 02:12:04;;;;;;;110.55;40.30;;;6.80;99.90;;;;;;5044187;28;20045;-81
2022/12/23 02:17:49;;;;;;;73.05;36.55;;;6.80;99.90;;;;;;5040213;28;20051;-80
2022/12/23 02:20:23;;;;;;;119.50;40.38;;;6.80;99.90;;;;;;5059258;28;20692;-80
2022/12/23 02:23:13;;;;;;;91.35;39.78;;;6.80;99.90;;;;;;5050825;28;20669;-80
2022/12/23 02:25:57;;;;;;;107.15;40.03;;;6.80;99.90;;;;;;5052842;28;20127;-80
2022/12/23 02:28:53;;;;;;;78.78;38.67;;;6.80;99.90;;;;;;5050644;28;20052;-80
2022/12/23 02:31:38;;;;;;;70.43;34.80;;;6.80;99.90;;;;;;5057208;28;20045;-80
2022/12/23 02:34:39;;;;;;;131.05;41.47;;;6.80;99.90;;;;;;5033448;28;20059;-81
2022/12/23 02:37:20;;;;;;;74.88;36.92;;;6.80;99.90;;;;;;5048037;28;20037;-81
2022/12/23 02:40:10;;;;;;;70.40;35.15;;;6.80;99.90;;;;;;5047204;28;20045;-80
2022/12/23 02:42:44;;;;;;;80.10;36.67;;;6.80;99.90;;;;;;5046731;28;20611;-80
2022/12/23 02:45:22;;;;;;;105.47;40.22;;;6.80;99.90;;;;;;5033537;28;20080;-81
2022/12/23 02:47:55;;;;;;;92.05;37.60;;;6.80;99.90;;;;;;5050188;28;20053;-80
2022/12/23 02:50:30;;;;;;;97.68;39.72;;;6.80;99.90;;;;;;5056497;28;20052;-81
2022/12/23 02:52:59;;;;;;;87.72;37.05;;;6.80;99.90;;;;;;5054153;28;20480;-81
2022/12/23 02:55:29;;;;;;;99.55;39.33;;;6.70;99.90;;;;;;5052087;28;20061;-80
2022/12/23 02:57:56;;;;;;;95.00;37.38;;;8.30;99.90;;;;;;5054306;28;20488;-81
2022/12/23 03:00:22;;;;;;;89.03;38.05;;;6.90;99.90;;;;;;5058872;28;20041;-81
2022/12/23 03:02:48;;;;;;;86.85;36.63;;;6.70;99.90;;;;;;5033862;28;20090;-80
2022/12/23 03:05:31;;;;;;;80.88;35.65;;;6.70;99.90;;;;;;5049465;28;20051;-81
2022/12/23 03:08:01;;;;;;;128.35;39.60;;;6.70;99.90;;;;;;5034359;28;20128;-81
2022/12/23 03:10:57;;;;;;;118.70;39.22;;;6.70;99.90;;;;;;5050270;28;20080;-80
2022/12/23 03:13:42;;;;;;;85.55;35.85;;;6.70;99.90;;;;;;5050209;28;20045;-80
2022/12/23 03:16:20;;;;;;;84.65;35.17;;;6.70;99.90;;;;;;5047196;28;20049;-80
2022/12/23 03:18:51;;;;;;;85.90;36.00;;;6.70;99.90;;;;;;5056124;28;20069;-81
2022/12/23 03:21:41;;;;;;;90.18;35.45;;;6.70;99.90;;;;;;5050784;28;20041;-81
2022/12/23 03:24:24;;;;;;;106.95;35.35;;;6.70;99.90;;;;;;5049211;28;20527;-81
2022/12/23 03:27:01;;;;;;;88.17;36.10;;;6.70;99.90;;;;;;5050377;28;20450;-81
2022/12/23 03:29:52;;;;;;;90.43;38.72;;;6.70;99.90;;;;;;5049821;28;20138;-80
2022/12/23 03:32:20;;;;;;;87.07;35.40;;;6.70;99.90;;;;;;5046983;28;20140;-80
2022/12/23 03:34:48;;;;;;;75.60;33.55;;;7.10;99.90;;;;;;5083822;28;20425;-80
2022/12/23 03:37:17;;;;;;;81.78;34.45;;;7.80;99.90;;;;;;5032127;28;20036;-80
2022/12/23 03:39:53;;;;;;;104.65;37.58;;;6.70;99.90;;;;;;5045481;28;20024;-79
2022/12/23 03:42:25;;;;;;;78.28;33.80;;;6.70;99.90;;;;;;5050513;28;20052;-80
2022/12/23 03:44:53;;;;;;;103.43;36.13;;;6.70;99.90;;;;;;5048687;28;20094;-80
2022/12/23 03:47:26;;;;;;;91.22;35.25;;;6.70;99.90;;;;;;5049826;28;20049;-80
2022/12/23 03:50:01;;;;;;;78.43;33.15;;;6.80;99.90;;;;;;5050515;28;20048;-80
2022/12/23 03:52:31;;;;;;;102.65;36.10;;;7.60;99.90;;;;;;5082773;28;20061;-81
2022/12/23 03:55:03;;;;;;;76.57;33.45;;;6.90;99.90;;;;;;5050157;28;20044;-81
2022/12/23 03:57:36;;;;;;;92.57;34.85;;;6.80;99.90;;;;;;5032551;28;20054;-80
2022/12/23 04:00:02;;;;;;;82.50;32.70;;;6.70;99.90;;;;;;5041588;28;20040;-80
2022/12/23 04:02:54;;;;;;;72.70;30.92;;;6.70;99.90;;;;;;5046125;28;20041;-80
2022/12/23 04:05:23;;;;;;;108.95;36.15;;;6.70;99.90;;;;;;5015034;28;20046;-80
2022/12/23 04:08:12;;;;;;;91.13;33.13;;;6.70;99.90;;;;;;5043561;28;20080;-80
2022/12/23 04:10:38;;;;;;;78.82;31.45;;;6.70;99.90;;;;;;5036241;28;20533;-80
2022/12/23 04:13:04;;;;;;;96.72;33.65;;;7.90;99.90;;;;;;5040381;28;20523;-80
2022/12/23 04:15:31;;;;;;;82.68;33.85;;;6.70;99.90;;;;;;5069485;28;20037;-80
2022/12/23 04:17:57;;;;;;;93.78;33.92;;;6.90;99.90;;;;;;5041097;28;20057;-80
2022/12/23 04:20:23;;;;;;;86.40;34.45;;;7.20;99.90;;;;;;5037287;28;20492;-80
2022/12/23 04:22:49;;;;;;;80.05;33.60;;;7.20;99.90;;;;;;5018622;28;20049;-79
2022/12/23 04:25:16;;;;;;;79.03;32.10;;;7.80;99.90;;;;;;5041387;28;20037;-80
2022/12/23 04:27:42;;;;;;;113.53;36.10;;;6.60;99.90;;;;;;5036776;28;20037;-80
2022/12/23 04:30:10;;;;;;;115.18;37.42;;;7.70;99.90;;;;;;5044292;28;20036;-80
2022/12/23 04:32:36;;;;;;;116.85;36.35;;;6.60;99.90;;;;;;5037863;28;20034;-80
2022/12/23 04:35:02;;;;;;;111.80;37.78;;;6.60;99.90;;;;;;5073770;28;20052;-80
2022/12/23 04:37:27;;;;;;;98.05;37.38;;;7.90;99.90;;;;;;5071276;28;20091;-80
2022/12/23 04:39:53;;;;;;;102.45;36.35;;;6.60;99.90;;;;;;5042246;28;20590;-80
2022/12/23 04:42:19;;;;;;;87.05;36.05;;;7.20;99.90;;;;;;5039246;28;20049;-80
2022/12/23 04:44:45;;;;;;;97.03;34.50;;;6.60;99.90;;;;;;5035208;28;20091;-80
2022/12/23 04:47:10;;;;;;;81.18;33.17;;;6.60;99.90;;;;;;5036684;28;20057;-80
2022/12/23 04:49:36;;;;;;;74.75;32.13;;;6.60;99.90;;;;;;5044447;28;20037;-80
2022/12/23 04:52:02;;;;;;;98.78;34.42;;;6.70;99.90;;;;;;5046365;28;20044;-80
2022/12/23 04:54:28;;;;;;;73.93;32.38;;;7.70;99.90;;;;;;5080267;28;20041;-80
2022/12/23 04:56:53;;;;;;;70.18;30.40;;;6.60;99.90;;;;;;5047112;28;20051;-80
2022/12/23 04:59:19;;;;;;;79.53;32.95;;;6.60;99.90;;;;;;5046571;28;20122;-79
2022/12/23 05:01:44;;;;;;;60.72;29.02;;;6.60;99.90;;;;;;5046280;28;20044;-79
2022/12/23 05:04:10;;;;;;;69.85;31.63;;;6.60;99.90;;;;;;5048521;28;20089;-79
2022/12/23 05:06:36;;;;;;;75.28;30.25;;;6.60;99.90;;;;;;5047219;28;20480;-80
2022/12/23 05:09:02;;;;;;;114.82;34.78;;;6.60;99.90;;;;;;5048003;28;20055;-80
2022/12/23 05:11:28;;;;;;;74.32;32.22;;;6.60;99.90;;;;;;5046399;28;20037;-80
2022/12/23 05:13:54;;;;;;;82.93;33.17;;;6.60;99.90;;;;;;5048609;28;20373;-81
2022/12/23 05:16:19;;;;;;;79.82;31.63;;;6.60;99.90;;;;;;5048129;28;20074;-81
2022/12/23 05:18:45;;;;;;;73.65;31.30;;;6.60;99.90;;;;;;5048557;28;20710;-80
2022/12/23 05:21:11;;;;;;;72.47;30.73;;;7.70;99.90;;;;;;5048131;28;20110;-81
2022/12/23 05:23:37;;;;;;;109.68;35.53;;;6.60;99.90;;;;;;5047025;28;20447;-81
2022/12/23 05:26:02;;;;;;;77.78;34.58;;;6.60;99.90;;;;;;5048829;28;20136;-81
2022/12/23 05:28:28;;;;;;;87.47;34.55;;;6.60;99.90;;;;;;5047912;28;20111;-81
2022/12/23 05:31:02;;;;;;;89.53;34.53;;;6.60;99.90;;;;;;5047304;28;20040;-79
2022/12/23 05:33:28;;;;;;;99.27;36.17;;;6.50;99.90;;;;;;5048035;28;20052;-80
2022/12/23 05:35:54;;;;;;;103.18;39.47;;;6.70;99.90;;;;;;5049491;28;20099;-80
2022/12/23 05:38:20;;;;;;;115.00;37.28;;;6.60;99.90;;;;;;5031095;28;20047;-81
2022/12/23 05:40:47;;;;;;;108.70;35.90;;;7.30;99.90;;;;;;5048446;28;20124;-81
2022/12/23 05:43:12;;;;;;;85.68;33.42;;;6.50;99.90;;;;;;5050180;28;20056;-81
2022/12/23 05:45:38;;;;;;;85.80;34.20;;;6.50;99.90;;;;;;5049676;28;20041;-80
2022/12/23 05:48:04;;;;;;;90.88;33.00;;;6.50;99.90;;;;;;5047636;28;20052;-80
2022/12/23 05:50:33;;;;;;;102.85;34.08;;;6.50;99.90;;;;;;5048948;28;20044;-81
2022/12/23 05:52:58;;;;;;;144.95;37.65;;;6.50;99.90;;;;;;5047575;28;20045;-80
2022/12/23 05:55:25;;;;;;;109.05;34.17;;;6.50;99.90;;;;;;5043958;28;20048;-80
2022/12/23 05:57:51;;;;;;;87.40;35.28;;;6.50;99.90;;;;;;5041530;28;20049;-81
2022/12/23 06:00:18;;;;;;;124.57;36.15;;;6.50;99.90;;;;;;5046298;28;20037;-81
2022/12/23 06:02:43;;;;;;;98.40;33.10;;;6.50;99.90;;;;;;5052013;28;20095;-80
2022/12/23 06:05:10;;;;;;;81.68;29.95;;;6.50;99.90;;;;;;5051727;28;20352;-80
2022/12/23 06:07:37;;;;;;;84.13;30.90;;;6.40;99.90;;;;;;5052313;28;20108;-81
2022/12/23 06:10:04;;;;;;;124.15;32.78;;;6.40;99.90;;;;;;5051037;28;20049;-80
2022/12/23 06:12:30;;;;;;;68.43;26.63;;;6.50;99.90;;;;;;5048484;28;20485;-79
2022/12/23 06:14:55;;;;;;;77.95;29.02;;;6.40;99.90;;;;;;5051905;28;20098;-80
2022/12/23 06:17:21;;;;;;;66.72;27.00;;;7.20;99.90;;;;;;5051822;28;20420;-80
2022/12/23 06:19:47;;;;;;;66.80;26.42;;;6.40;99.90;;;;;;5033825;28;20053;-81
2022/12/23 06:22:14;;;;;;;58.50;24.30;;;6.40;99.90;;;;;;5047231;28;20075;-81
2022/12/23 06:24:50;;;;;;;63.61;27.34;;;6.40;99.90;;;;;;5023268;28;10000416;-81
2022/12/23 06:27:16;;;;;;;153.93;30.67;;;6.40;99.90;;;;;;5070293;28;20242;-81
2022/12/23 06:29:42;;;;;;;83.07;27.58;;;6.20;99.90;;;;;;5056146;28;20096;-79
2022/12/23 06:32:07;;;;;;;105.93;29.08;;;6.30;99.90;;;;;;5048067;28;20536;-83
2022/12/23 06:34:33;;;;;;;193.25;32.47;;;6.30;99.90;;;;;;5038087;28;20037;-82
2022/12/23 06:36:59;;;;;;;361.45;43.80;;;6.40;99.90;;;;;;5057225;28;20240;-82
2022/12/23 06:39:25;;;;;;;154.60;34.30;;;6.30;99.90;;;;;;5043867;28;20053;-81
2022/12/23 06:41:51;;;;;;;228.88;33.40;;;6.30;99.90;;;;;;5057213;28;20033;-81
2022/12/23 06:44:17;;;;;;;333.48;39.65;;;6.30;99.90;;;;;;5051287;28;20087;-81
2022/12/23 06:46:42;;;;;;;94.43;29.05;;;6.20;99.90;;;;;;5058578;28;20666;-81
2022/12/23 06:49:08;;;;;;;78.10;28.02;;;6.20;99.90;;;;;;5049899;28;20048;-81
2022/12/23 06:51:34;;;;;;;72.82;25.95;;;7.50;99.90;;;;;;5057234;28;20033;-82
2022/12/23 06:53:59;;;;;;;155.02;30.15;;;6.20;99.90;;;;;;5057371;28;20071;-80
2022/12/23 06:56:25;;;;;;;247.40;31.75;;;7.30;99.90;;;;;;5051708;28;20067;-77
2022/12/23 06:58:54;;;;;;;110.22;24.10;;;6.20;99.90;;;;;;5043510;28;20045;-81
2022/12/23 07:01:25;;;;;;;148.57;22.67;;;6.10;99.90;;;;;;5050848;28;20102;-81
2022/12/23 07:03:51;;;;;;;159.80;25.40;;;6.10;99.90;;;;;;5047443;28;20527;-80
2022/12/23 07:06:16;;;;;;;149.95;23.40;;;7.10;99.90;;;;;;5050600;28;20057;-81
2022/12/23 07:08:42;;;;;;;226.55;27.27;;;6.10;99.90;;;;;;5051637;28;20060;-82
2022/12/23 07:11:08;;;;;;;143.77;25.85;;;6.10;99.90;;;;;;5048726;28;20480;-81
2022/12/23 07:13:34;;;;;;;105.93;25.50;;;6.90;99.90;;;;;;5049604;28;20121;-81
2022/12/23 07:16:05;;;;;;;178.70;26.63;;;6.00;99.90;;;;;;5044915;28;20231;-82
2022/12/23 07:18:31;;;;;;;145.20;26.33;;;6.00;99.90;;;;;;5054967;28;20036;-83
2022/12/23 07:20:59;;;;;;;95.85;25.60;;;6.10;99.90;;;;;;5053349;28;20497;-80
2022/12/23 07:23:25;;;;;;;95.40;26.50;;;7.20;99.90;;;;;;4713794;28;9999811;-82
2022/12/23 07:26:00;;;;;;;104.80;23.30;;;6.00;99.90;;;;;;5045835;28;20045;-83
2022/12/23 07:28:25;;;;;;;87.53;25.77;;;6.40;99.90;;;;;;5048739;28;20045;-82
2022/12/23 07:30:51;;;;;;;75.55;24.73;;;6.10;99.90;;;;;;5047293;28;20423;-82
2022/12/23 07:33:16;;;;;;;49.75;21.88;;;7.50;99.90;;;;;;5049731;28;20044;-82
2022/12/23 07:35:42;;;;;;;121.35;29.35;;;6.00;99.90;;;;;;5031264;28;20064;-81
2022/12/23 07:38:09;;;;;;;67.18;23.42;;;6.10;99.90;;;;;;5034777;28;20386;-80
2022/12/23 07:40:34;;;;;;;79.88;25.45;;;6.10;99.90;;;;;;5057808;28;20080;-80
2022/12/23 07:43:00;;;;;;;77.32;24.13;;;7.30;99.90;;;;;;5048470;28;20044;-82
2022/12/23 07:45:27;;;;;;;67.50;25.58;;;6.10;99.90;;;;;;5049734;28;20146;-81
2022/12/23 07:47:57;;;;;;;69.63;23.10;;;6.10;99.90;;;;;;5051133;28;20037;-81
2022/12/23 07:50:24;;;;;;;68.07;24.80;;;7.60;99.90;;;;;;5066937;28;20040;-82
2022/12/23 07:52:50;;;;;;;81.40;24.90;;;6.10;99.90;;;;;;5033031;28;20102;-80
2022/12/23 07:55:16;;;;;;;87.70;25.25;;;7.20;99.90;;;;;;5082552;28;20116;-80
2022/12/23 07:57:42;;;;;;;70.45;25.73;;;6.10;99.90;;;;;;5050480;28;20116;-82
2022/12/23 08:00:11;;;;;;;72.22;24.27;;;6.10;99.90;;;;;;5028307;28;20033;-82
2022/12/23 08:02:37;;;;;;;71.70;24.80;;;5.40;99.90;;;;;;5050186;28;20431;-81
2022/12/23 08:05:02;;;;;;;98.28;25.80;;;6.20;99.90;;;;;;5032573;28;20086;-81
2022/12/23 08:07:28;;;;;;;94.53;27.90;;;6.10;99.90;;;;;;5059741;28;20080;-79
2022/12/23 08:09:54;;;;;;;86.28;24.55;;;6.10;99.90;;;;;;5053089;28;20040;-79
2022/12/23 08:12:23;;;;;;;56.92;23.58;;;6.10;99.90;;;;;;5029577;28;20041;-81
2022/12/23 08:14:51;;;;;;;54.78;21.55;;;6.10;99.90;;;;;;5052068;28;20134;-82
2022/12/23 08:17:19;;;;;;;51.95;21.48;;;6.40;99.90;;;;;;5030511;28;20048;-82
2022/12/23 08:19:46;;;;;;;65.65;24.38;;;6.50;99.90;;;;;;5079149;28;20548;-81
2022/12/23 08:22:11;;;;;;;61.08;23.23;;;6.70;99.90;;;;;;4734177;28;10000335;-79
2022/12/23 08:24:37;;;;;;;62.72;24.42;;;6.20;99.90;;;;;;5030494;28;20124;-82
2022/12/23 08:27:02;;;;;;;64.07;24.35;;;6.20;99.90;;;;;;5035739;28;20044;-80
2022/12/23 08:29:28;;;;;;;59.47;24.98;;;6.20;99.90;;;;;;5045360;28;20029;-81
2022/12/23 08:31:54;;;;;;;55.08;22.13;;;7.70;99.90;;;;;;5032835;28;20051;-81
2022/12/23 08:34:20;;;;;;;64.85;24.67;;;6.20;99.90;;;;;;5048077;28;20041;-81
2022/12/23 08:36:46;;;;;;;113.15;26.42;;;6.20;99.90;;;;;;5049183;28;20090;-82
2022/12/23 08:39:12;;;;;;;173.25;27.63;;;6.20;99.90;;;;;;5031415;28;20214;-79
2022/12/23 08:41:42;;;;;;;377.02;36.75;;;7.00;99.90;;;;;;5031523;28;20392;-79
2022/12/23 08:44:08;;;;;;;188.02;27.10;;;6.00;99.90;;;;;;5026783;28;20060;-80
2022/12/23 08:46:34;;;;;;;209.65;27.58;;;6.80;99.90;;;;;;5031143;28;20045;-82
2022/12/23 08:48:59;;;;;;;144.75;23.40;;;6.10;99.90;;;;;;5047793;28;20139;-80
2022/12/23 08:51:26;;;;;;;354.77;30.83;;;6.10;99.90;;;;;;5046454;28;20063;-81
2022/12/23 08:53:55;;;;;;;54.42;21.40;;;6.10;99.90;;;;;;5023659;28;20149;-82
2022/12/23 08:56:22;;;;;;;71.63;22.23;;;6.50;99.90;;;;;;5040423;28;21571;-83
2022/12/23 08:58:51;;;;;;;70.13;21.45;;;6.20;99.90;;;;;;5051808;28;21736;-81
2022/12/23 09:01:19;;;;;;;111.57;22.00;;;6.10;99.90;;;;;;5054095;28;20044;-82
2022/12/23 09:03:45;;;;;;;115.20;22.88;;;6.20;99.90;;;;;;5049650;28;20041;-81
2022/12/23 09:06:17;;;;;;;79.45;20.67;;;6.20;99.90;;;;;;5050401;28;20041;-80
2022/12/23 09:08:43;;;;;;;52.05;21.20;;;7.60;99.90;;;;;;5046733;28;20837;-80
2022/12/23 09:11:17;;;;;;;87.85;21.42;;;6.30;99.90;;;;;;5049297;28;20040;-79
2022/12/23 09:13:43;;;;;;;;;;;6.20;99.90;;;;;;5046868;28;20501;-79
2022/12/23 09:16:09;;;;;;;100.93;22.17;;;6.20;99.90;;;;;;5031292;28;20276;-78
2022/12/23 09:18:35;;;;;;;50.65;20.38;;;6.20;99.90;;;;;;5050161;28;20111;-79
2022/12/23 09:21:03;;;;;;;61.60;21.38;;;6.20;99.90;;;;;;5030581;28;20056;-80
2022/12/23 09:23:29;;;;;;;50.42;19.27;;;6.30;99.90;;;;;;5058857;28;20373;-83
2022/12/23 09:25:55;;;;;;;127.35;25.10;;;7.80;99.90;;;;;;5059401;28;20052;-82
2022/12/23 09:28:22;;;;;;;53.88;20.25;;;6.30;99.90;;;;;;5054886;28;20072;-80
2022/12/23 09:30:48;;;;;;;40.13;18.45;;;6.30;99.90;;;;;;5044394;28;20044;-80
2022/12/23 09:33:14;;;;;;;86.30;25.40;;;7.30;99.90;;;;;;5029249;28;20831;-81
2022/12/23 09:35:40;;;;;;;43.38;20.75;;;6.30;99.90;;;;;;5041587;28;20473;-83
2022/12/23 09:38:05;;;;;;;42.65;19.77;;;6.30;99.90;;;;;;5042917;28;20788;-82
2022/12/23 09:40:34;;;;;;;44.67;20.02;;;6.40;99.90;;;;;;5054725;28;20044;-81
2022/12/23 09:43:21;;;;;;;46.30;21.10;;;6.40;99.90;;;;;;5037807;28;20416;-82
2022/12/23 09:45:53;;;;;;;36.33;18.90;;;6.40;99.90;;;;;;5040072;28;20120;-81
2022/12/23 09:48:24;;;;;;;43.63;18.58;;;6.40;99.90;;;;;;5026319;28;20091;-81
2022/12/23 09:50:50;;;;;;;44.05;16.38;;;7.50;99.90;;;;;;5035856;28;20131;-81
2022/12/23 09:53:26;;;;;;;41.63;18.27;;;7.80;99.90;;;;;;5042930;28;20046;-79
2022/12/23 09:56:23;;;;;;;43.25;19.25;;;6.50;99.90;;;;;;5050159;28;20098;-80
2022/12/23 09:59:04;;;;;;;49.25;18.38;;;6.50;99.90;;;;;;5022445;28;20063;-81
2022/12/23 10:01:48;;;;;;;33.55;16.92;;;6.50;99.90;;;;;;5053861;28;20392;-81
2022/12/23 10:04:41;;;;;;;39.60;17.67;;;6.50;99.90;;;;;;5048481;28;20119;-81
2022/12/23 10:07:17;;;;;;;56.80;34.35;;;6.50;99.90;;;;;;5042946;28;20057;-80
2022/12/23 10:09:46;;;;;;;54.47;27.55;;;7.60;99.90;;;;;;5024779;28;20045;-79
2022/12/23 10:12:35;;;;;;;42.08;23.20;;;7.10;99.90;;;;;;5046307;28;20232;-77
2022/12/23 10:15:04;;;;;;;48.00;24.40;;;6.60;99.90;;;;;;5044084;28;20048;-76
2022/12/23 10:17:41;;;;;;;62.13;33.58;;;6.50;99.90;;;;;;5040074;28;20111;-76
2022/12/23 10:20:17;;;;;;;57.20;25.65;;;6.60;99.90;;;;;;5029329;28;20060;-77
2022/12/23 10:22:44;;;;;;;45.53;21.55;;;6.60;99.90;;;;;;5035818;28;20465;-76
2022/12/23 10:25:18;;;;;;;44.97;18.38;;;7.60;99.90;;;;;;5047825;28;20041;-76
2022/12/23 10:27:44;;;;;;;35.28;17.50;;;6.60;99.90;;;;;;5046389;28;20115;-76
2022/12/23 10:30:15;;;;;;;40.20;20.00;;;6.60;99.90;;;;;;5045859;28;20166;-77
2022/12/23 10:33:12;;;;;;;45.38;19.17;;;6.60;99.90;;;;;;5046612;28;20049;-79
2022/12/23 10:35:51;;;;;;;59.03;22.50;;;6.70;99.90;;;;;;5040928;28;20405;-78
2022/12/23 10:38:50;;;;;;;55.47;20.75;;;6.70;99.90;;;;;;5028885;28;20044;-78
2022/12/23 10:41:22;;;;;;;42.75;19.35;;;6.70;99.90;;;;;;5062064;28;20679;-77
2022/12/23 10:43:47;;;;;;;47.40;20.98;;;6.70;99.90;;;;;;5046350;28;20041;-78
2022/12/23 10:46:47;;;;;;;49.63;25.08;;;6.70;99.90;;;;;;5047197;28;20377;-77
2022/12/23 10:49:50;;;;;;;43.60;21.10;;;6.80;99.90;;;;;;5080382;28;20049;-77
2022/12/23 10:52:26;;;;;;;42.30;19.73;;;6.80;99.90;;;;;;5050221;28;20571;-78
2022/12/23 10:54:52;;;;;;;41.33;19.85;;;6.80;99.90;;;;;;5053173;28;20041;-78
2022/12/23 10:57:19;;;;;;;38.47;17.08;;;6.80;99.90;;;;;;5049857;28;20472;-78
2022/12/23 10:59:45;;;;;;;35.47;17.63;;;6.80;99.90;;;;;;5049986;28;20056;-77
2022/12/23 11:02:11;;;;;;;44.05;18.65;;;6.80;99.90;;;;;;5048728;28;20040;-77
2022/12/23 11:04:41;;;;;;;37.60;17.30;;;7.80;99.90;;;;;;5033036;28;20045;-78
2022/12/23 11:07:11;;;;;;;43.15;17.73;;;6.90;99.90;;;;;;5049624;28;20090;-80
2022/12/23 11:09:43;;;;;;;33.20;16.00;;;8.40;99.90;;;;;;5020496;28;20149;-80
2022/12/23 11:12:10;;;;;;;41.95;17.88;;;6.90;99.90;;;;;;5039875;28;20095;-82
2022/12/23 11:14:52;;;;;;;39.00;17.35;;;6.90;99.90;;;;;;5046987;28;20045;-81
2022/12/23 11:17:23;;;;;;;40.67;17.73;;;6.90;99.90;;;;;;5047399;28;20566;-81
2022/12/23 11:20:16;;;;;;;48.13;18.10;;;6.90;99.90;;;;;;5032408;28;20555;-80
2022/12/23 11:22:52;;;;;;;36.50;16.10;;;6.90;99.90;;;;;;5041621;28;20488;-82
2022/12/23 11:25:27;;;;;;;37.33;15.18;;;6.90;99.90;;;;;;5035637;28;20041;-79
2022/12/23 11:28:01;;;;;;;30.95;14.15;;;6.90;99.90;;;;;;5039913;28;20049;-76
2022/12/23 11:30:30;;;;;;;33.10;14.90;;;8.10;99.90;;;;;;5041650;28;20077;-79
2022/12/23 11:32:55;;;;;;;38.13;20.42;;;6.90;99.90;;;;;;5024934;28;20057;-75
2022/12/23 11:35:33;;;;;;;43.75;19.83;;;7.00;99.90;;;;;;5049736;28;20047;-80
2022/12/23 11:38:01;;;;;;;28.38;15.48;;;7.00;99.90;;;;;;5025087;28;20049;-78
2022/12/23 11:40:30;;;;;;;36.72;20.40;;;8.40;99.90;;;;;;5048794;28;20052;-77
2022/12/23 11:43:00;;;;;;;44.58;19.20;;;7.50;99.90;;;;;;5050422;28;20080;-78
2022/12/23 11:45:29;;;;;;;32.67;18.10;;;7.10;99.90;;;;;;5049359;28;20045;-79
2022/12/23 11:47:55;;;;;;;30.00;17.17;;;7.10;99.90;;;;;;5049989;28;20037;-77
2022/12/23 11:50:25;;;;;;;31.50;17.25;;;7.10;99.90;;;;;;5024008;28;20392;-78
2022/12/23 11:53:19;;;;;;;35.75;16.33;;;7.10;99.90;;;;;;5049240;28;20040;-79
2022/12/23 11:55:58;;;;;;;37.08;15.18;;;7.10;99.90;;;;;;5064351;28;20037;-83
2022/12/23 11:58:24;;;;;;;40.05;15.23;;;8.60;99.90;;;;;;5032529;28;20040;-83
2022/12/23 12:01:06;;;;;;;40.28;16.98;;;7.20;99.90;;;;;;5067289;28;20052;-84
2022/12/23 12:03:45;;;;;;;35.17;14.98;;;7.20;99.90;;;;;;5043431;28;20057;-84
2022/12/23 12:06:14;;;;;;;26.33;13.90;;;7.10;99.90;;;;;;5038648;28;20552;-82
2022/12/23 12:08:40;;;;;;;25.15;13.20;;;8.80;99.90;;;;;;5036032;28;20037;-82
2022/12/23 12:11:37;;;;;;;24.08;14.02;;;7.60;99.90;;;;;;5050667;28;20072;-82
2022/12/23 12:14:07;;;;;;;57.08;14.65;;;7.20;99.90;;;;;;5041901;28;20057;-81
2022/12/23 12:17:17;;;;;;;43.63;13.75;;;7.20;99.90;;;;;;5032955;28;20148;-77
2022/12/23 12:20:03;;;;;;;27.00;12.48;;;7.20;99.90;;;;;;4990013;28;20381;-77
2022/12/23 12:22:49;;;;;;;46.28;14.02;;;7.20;99.90;;;;;;5048587;28;20037;-78
2022/12/23 12:25:30;;;;;;;28.75;12.57;;;7.20;99.90;;;;;;5045038;28;20040;-78
2022/12/23 12:28:02;;;;;;;65.85;14.68;;;7.20;99.90;;;;;;5043371;28;20485;-77
2022/12/23 12:30:43;;;;;;;26.77;12.70;;;7.30;99.90;;;;;;5047572;28;20139;-76
2022/12/23 12:33:24;;;;;;;28.92;14.30;;;7.30;99.90;;;;;;5030839;28;20041;-78
2022/12/23 12:36:14;;;;;;;29.17;13.77;;;7.30;99.90;;;;;;5031480;28;20186;-81
2022/12/23 12:38:44;;;;;;;456.50;49.33;;;7.30;99.90;;;;;;5044303;28;20134;-82
2022/12/23 12:41:13;;;;;;;60.15;16.65;;;7.30;99.90;;;;;;5040743;28;20068;-84
2022/12/23 12:43:49;;;;;;;26.70;12.98;;;8.40;99.90;;;;;;5050220;28;20041;-82
2022/12/23 12:46:45;;;;;;;29.35;14.60;;;7.30;99.90;;;;;;5047892;28;20037;-81
2022/12/23 12:49:21;;;;;;;35.25;15.43;;;7.30;99.90;;;;;;5064624;28;20132;-80
2022/12/23 12:52:10;;;;;;;30.13;14.30;;;7.30;99.90;;;;;;5031075;28;20055;-81
2022/12/23 12:54:41;;;;;;;508.23;54.25;;;7.30;99.90;;;;;;5048820;28;20045;-80
2022/12/23 12:57:17;;;;;;;238.07;32.10;;;7.30;99.90;;;;;;5048916;28;20044;-80
2022/12/23 12:59:49;;;;;;;28.58;14.95;;;7.30;99.90;;;;;;5030072;28;20033;-79
2022/12/23 13:02:24;;;;;;;33.53;15.35;;;7.30;99.90;;;;;;5047628;28;20049;-79
2022/12/23 13:05:29;;;;;;;25.38;13.90;;;7.30;99.90;;;;;;5048024;28;20095;-78
2022/12/23 13:08:06;;;;;;;26.52;14.68;;;7.30;99.90;;;;;;5043467;28;20058;-78
2022/12/23 13:10:35;;;;;;;36.22;15.63;;;7.20;99.90;;;;;;5048208;28;20047;-79
2022/12/23 13:13:20;;;;;;;36.15;16.65;;;7.20;99.90;;;;;;5049609;28;20080;-79
2022/12/23 13:15:53;;;;;;;27.90;14.05;;;8.20;99.90;;;;;;5000886;28;20045;-79
2022/12/23 13:18:36;;;;;;;35.22;14.90;;;7.30;99.90;;;;;;5029364;28;20048;-79
2022/12/23 13:21:18;;;;;;;29.48;13.38;;;7.30;99.90;;;;;;5049014;28;20041;-80